createdAt,value
2023-05-19T00:00:58.944Z,8.26
2023-05-19T00:03:25.930Z,7.78
2023-05-19T00:05:58.156Z,7.91
2023-05-19T00:08:25.081Z,8.35
2023-05-19T00:10:51.984Z,8.32
2023-05-19T00:13:19.799Z,7.78
2023-05-19T00:15:46.836Z,7.55
2023-05-19T00:18:13.706Z,8.20
2023-05-19T00:20:40.433Z,7.73
2023-05-19T00:23:07.140Z,8.08
2023-05-19T00:25:33.835Z,8.02
2023-05-19T00:28:00.513Z,8.07
2023-05-19T00:30:27.258Z,7.88
2023-05-19T00:32:53.989Z,8.27
2023-05-19T00:35:20.797Z,7.71
2023-05-19T00:37:47.544Z,7.30
2023-05-19T00:40:14.869Z,7.47
2023-05-19T00:42:42.132Z,7.38
2023-05-19T00:45:09.142Z,7.43
2023-05-19T00:47:36.030Z,7.03
2023-05-19T00:50:02.736Z,7.85
2023-05-19T00:52:29.519Z,7.42
2023-05-19T00:54:56.184Z,7.41
2023-05-19T00:57:23.602Z,7.51
2023-05-19T00:59:50.550Z,7.76
2023-05-19T01:02:17.402Z,7.92
2023-05-19T01:04:45.128Z,7.80
2023-05-19T01:07:11.806Z,8.00
2023-05-19T01:09:39.365Z,8.12
2023-05-19T01:12:06.682Z,8.18
2023-05-19T01:14:33.501Z,8.55
2023-05-19T01:17:09.726Z,8.39
2023-05-19T01:19:54.565Z,8.46
2023-05-19T01:22:36.111Z,8.36
2023-05-19T01:25:28.251Z,8.28
2023-05-19T01:28:00.490Z,8.34
2023-05-19T01:30:42.775Z,8.00
2023-05-19T01:33:12.811Z,7.93
2023-05-19T01:35:43.909Z,7.91
2023-05-19T01:38:13.154Z,7.72
2023-05-19T01:40:41.423Z,7.79
2023-05-19T01:43:11.829Z,7.81
2023-05-19T01:45:39.957Z,7.86
2023-05-19T01:48:09.910Z,7.90
2023-05-19T01:50:38.174Z,7.81
2023-05-19T01:53:05.105Z,7.36
2023-05-19T01:55:32.134Z,7.36
2023-05-19T01:58:36.558Z,7.03
2023-05-19T02:01:29.703Z,7.31
2023-05-19T02:04:30.531Z,7.11
2023-05-19T02:07:21.526Z,7.66
2023-05-19T02:09:58.765Z,7.52
2023-05-19T02:12:31.004Z,7.27
2023-05-19T02:15:05.573Z,7.45
2023-05-19T02:17:36.085Z,7.45
2023-05-19T02:20:06.529Z,7.55
2023-05-19T02:22:33.269Z,7.54
2023-05-19T02:25:00.021Z,7.20
2023-05-19T02:27:26.887Z,7.46
2023-05-19T02:29:53.826Z,7.14
2023-05-19T02:32:21.304Z,7.60
2023-05-19T02:34:48.216Z,7.92
2023-05-19T02:37:16.425Z,7.63
2023-05-19T02:39:44.088Z,7.84
2023-05-19T02:42:11.277Z,7.53
2023-05-19T02:44:38.090Z,7.62
2023-05-19T02:47:05.077Z,7.75
2023-05-19T02:49:31.771Z,7.69
2023-05-19T02:51:58.432Z,7.71
2023-05-19T02:54:25.132Z,7.85
2023-05-19T02:56:51.810Z,7.69
2023-05-19T02:59:18.500Z,7.88
2023-05-19T03:01:45.262Z,8.02
2023-05-19T03:04:11.925Z,7.86
2023-05-19T03:06:38.662Z,7.60
2023-05-19T03:09:05.373Z,7.55
2023-05-19T03:11:32.246Z,7.66
2023-05-19T03:13:59.296Z,7.43
2023-05-19T03:16:25.991Z,7.67
2023-05-19T03:18:52.756Z,7.87
2023-05-19T03:21:19.426Z,7.70
2023-05-19T03:23:46.098Z,7.52
2023-05-19T03:26:12.799Z,7.35
2023-05-19T03:28:39.476Z,7.50
2023-05-19T03:31:06.179Z,7.56
2023-05-19T03:33:32.900Z,7.69
2023-05-19T03:35:59.617Z,7.73
2023-05-19T03:38:26.405Z,7.55
2023-05-19T03:40:53.062Z,7.62
2023-05-19T03:43:19.693Z,7.62
2023-05-19T03:45:46.497Z,7.47
2023-05-19T03:48:13.274Z,8.05
2023-05-19T03:50:39.951Z,7.71
2023-05-19T03:53:06.650Z,7.71
2023-05-19T03:55:33.442Z,7.70
2023-05-19T03:58:00.181Z,7.60
2023-05-19T04:00:26.869Z,7.36
2023-05-19T04:02:53.604Z,7.36
2023-05-19T04:05:20.509Z,7.59
2023-05-19T04:07:47.295Z,7.47
2023-05-19T04:10:14.033Z,7.27
2023-05-19T04:12:40.728Z,7.41
2023-05-19T04:15:07.951Z,7.64
2023-05-19T04:17:34.840Z,7.45
2023-05-19T04:20:01.681Z,7.56
2023-05-19T04:22:28.415Z,7.23
2023-05-19T04:24:55.133Z,7.13
2023-05-19T04:27:21.890Z,7.29
2023-05-19T04:29:48.688Z,7.60
2023-05-19T04:32:15.954Z,7.08
2023-05-19T04:34:45.460Z,7.40
2023-05-19T04:37:15.168Z,7.32
2023-05-19T04:39:42.905Z,7.11
2023-05-19T04:42:10.028Z,7.51
2023-05-19T04:44:36.708Z,7.61
2023-05-19T04:47:04.240Z,7.77
2023-05-19T04:49:30.924Z,7.57
2023-05-19T04:51:57.718Z,7.75
2023-05-19T04:54:24.380Z,7.69
2023-05-19T04:56:51.089Z,7.42
2023-05-19T04:59:17.758Z,7.67
2023-05-19T05:01:44.467Z,7.70
2023-05-19T05:04:11.488Z,7.49
2023-05-19T05:06:38.196Z,7.41
2023-05-19T05:09:05.122Z,7.47
2023-05-19T05:11:32.241Z,7.18
2023-05-19T05:13:59.321Z,7.29
2023-05-19T05:16:26.568Z,6.96
2023-05-19T05:18:53.627Z,7.01
2023-05-19T05:21:20.807Z,7.30
2023-05-19T05:23:47.814Z,7.18
2023-05-19T05:26:19.452Z,7.74
2023-05-19T05:28:46.190Z,7.66
2023-05-19T05:31:12.939Z,7.63
2023-05-19T05:33:39.868Z,7.53
2023-05-19T05:36:06.943Z,7.51
2023-05-19T05:38:33.628Z,7.12
2023-05-19T05:41:01.631Z,7.49
2023-05-19T05:43:28.520Z,7.33
2023-05-19T05:45:56.980Z,7.25
2023-05-19T05:48:24.341Z,7.53
2023-05-19T05:50:51.994Z,7.39
2023-05-19T05:53:20.317Z,7.30
2023-05-19T05:55:47.997Z,6.88
2023-05-19T05:58:15.736Z,6.81
2023-05-19T06:00:43.730Z,6.86
2023-05-19T06:03:11.530Z,7.09
2023-05-19T06:05:41.314Z,7.53
2023-05-19T06:08:08.068Z,7.02
2023-05-19T06:10:35.082Z,6.77
2023-05-19T06:13:02.014Z,6.88
2023-05-19T06:15:28.724Z,7.48
2023-05-19T06:17:55.484Z,7.66
2023-05-19T06:20:22.259Z,7.37
2023-05-19T06:22:48.977Z,7.11
2023-05-19T06:25:15.727Z,7.20
2023-05-19T06:27:42.410Z,7.22
2023-05-19T06:30:09.420Z,6.93
2023-05-19T06:32:36.177Z,6.71
2023-05-19T06:35:06.149Z,6.75
2023-05-19T06:37:32.835Z,6.25
2023-05-19T06:39:59.597Z,6.82
2023-05-19T06:42:26.280Z,7.17
2023-05-19T06:44:53.282Z,7.04
2023-05-19T06:47:20.024Z,7.05
2023-05-19T06:49:47.600Z,7.12
2023-05-19T06:52:14.316Z,7.18
2023-05-19T06:54:41.037Z,7.47
2023-05-19T06:57:07.877Z,7.40
2023-05-19T06:59:34.560Z,6.87
2023-05-19T07:02:01.261Z,6.70
2023-05-19T07:04:27.999Z,6.52
2023-05-19T07:06:54.678Z,7.00
2023-05-19T07:09:21.469Z,7.25
2023-05-19T07:11:48.752Z,7.19
2023-05-19T07:14:15.481Z,6.93
2023-05-19T07:16:42.252Z,7.26
2023-05-19T07:19:08.957Z,7.49
2023-05-19T07:21:35.817Z,7.71
2023-05-19T07:24:02.497Z,7.56
2023-05-19T07:26:29.385Z,7.47
2023-05-19T07:28:56.446Z,7.63
2023-05-19T07:31:24.464Z,7.52
2023-05-19T07:33:53.123Z,7.36
2023-05-19T07:36:21.247Z,7.45
2023-05-19T07:38:47.998Z,7.34
2023-05-19T07:41:15.175Z,7.28
2023-05-19T07:43:42.956Z,7.42
2023-05-19T07:46:09.842Z,7.65
2023-05-19T07:48:37.123Z,7.47
2023-05-19T07:51:03.932Z,7.48
2023-05-19T07:53:30.782Z,7.22
2023-05-19T07:56:00.269Z,7.40
2023-05-19T07:58:26.999Z,7.17
2023-05-19T08:00:53.658Z,7.63
2023-05-19T08:03:20.872Z,7.72
2023-05-19T08:05:47.842Z,7.66
2023-05-19T08:08:14.693Z,7.47
2023-05-19T08:10:41.346Z,7.41
2023-05-19T08:13:08.126Z,7.74
2023-05-19T08:15:37.488Z,7.75
2023-05-19T08:18:04.293Z,7.55
2023-05-19T08:20:31.501Z,7.97
2023-05-19T08:22:58.619Z,7.91
2023-05-19T08:25:25.379Z,8.28
2023-05-19T08:27:52.071Z,9.17
2023-05-19T08:30:18.757Z,9.12
2023-05-19T08:32:45.558Z,9.74
2023-05-19T08:35:12.318Z,8.99
2023-05-19T08:37:38.990Z,9.08
2023-05-19T08:40:06.497Z,9.81
2023-05-19T08:42:33.450Z,9.32
2023-05-19T08:45:01.580Z,8.53
2023-05-19T08:47:29.481Z,8.62
2023-05-19T08:50:05.393Z,8.78
2023-05-19T08:52:53.553Z,7.84
2023-05-19T08:55:58.864Z,8.06
2023-05-19T08:58:30.364Z,7.74
2023-05-19T09:01:01.122Z,8.02
2023-05-19T09:03:29.477Z,8.07
2023-05-19T09:05:56.380Z,7.99
2023-05-19T09:08:23.254Z,8.72
2023-05-19T09:10:53.000Z,9.00
2023-05-19T09:13:20.117Z,8.77
2023-05-19T09:15:48.142Z,8.24
2023-05-19T09:18:14.885Z,8.51
2023-05-19T09:20:43.945Z,8.46
2023-05-19T09:23:18.473Z,9.38
2023-05-19T09:25:52.924Z,9.13
2023-05-19T09:28:30.579Z,9.04
2023-05-19T09:31:07.301Z,9.20
2023-05-19T09:33:36.411Z,8.86
2023-05-19T09:36:04.481Z,8.70
2023-05-19T09:38:31.399Z,9.58
2023-05-19T09:41:00.335Z,9.21
2023-05-19T09:43:34.597Z,9.25
2023-05-19T09:46:04.368Z,9.47
2023-05-19T09:48:31.227Z,9.82
2023-05-19T09:50:58.199Z,9.99
2023-05-19T09:53:25.187Z,10.02
2023-05-19T09:55:55.901Z,9.96
2023-05-19T09:58:22.705Z,9.80
2023-05-19T10:00:50.948Z,9.78
2023-05-19T10:03:19.768Z,9.80
2023-05-19T10:05:48.581Z,9.65
2023-05-19T10:08:19.200Z,9.30
2023-05-19T10:10:47.158Z,9.34
2023-05-19T10:13:14.002Z,9.26
2023-05-19T10:15:57.283Z,9.19
2023-05-19T10:18:26.601Z,9.25
2023-05-19T10:20:54.626Z,9.39
2023-05-19T10:23:21.318Z,9.08
2023-05-19T10:25:51.205Z,8.95
2023-05-19T10:28:22.584Z,9.02
2023-05-19T10:30:54.795Z,9.21
2023-05-19T10:33:54.455Z,9.23
2023-05-19T10:36:26.937Z,9.26
2023-05-19T10:39:03.805Z,9.67
2023-05-19T10:41:55.433Z,8.73
2023-05-19T10:44:40.032Z,8.74
2023-05-19T10:47:07.793Z,8.58
2023-05-19T10:49:36.252Z,9.05
2023-05-19T10:52:23.031Z,9.11
2023-05-19T10:54:50.054Z,8.86
2023-05-19T10:57:26.392Z,9.25
2023-05-19T10:59:53.086Z,8.91
2023-05-19T11:02:39.269Z,8.99
2023-05-19T11:05:12.280Z,8.71
2023-05-19T11:07:42.357Z,8.91
2023-05-19T11:10:12.043Z,9.16
2023-05-19T11:12:44.762Z,9.00
2023-05-19T11:15:15.472Z,9.44
2023-05-19T11:17:49.011Z,9.17
2023-05-19T11:20:29.390Z,9.39
2023-05-19T11:23:06.106Z,10.20
2023-05-19T11:25:42.628Z,9.54
2023-05-19T11:28:11.022Z,8.50
2023-05-19T11:30:39.786Z,8.86
2023-05-19T11:33:07.867Z,8.77
2023-05-19T11:35:36.508Z,8.54
2023-05-19T11:38:03.745Z,8.25
2023-05-19T11:40:30.926Z,8.39
2023-05-19T11:42:58.451Z,7.35
2023-05-19T11:45:31.556Z,6.38
2023-05-19T11:48:01.931Z,6.34
2023-05-19T11:50:31.405Z,5.81
2023-05-19T11:53:01.213Z,5.47
2023-05-19T11:55:28.537Z,6.22
2023-05-19T11:58:02.950Z,6.38
2023-05-19T12:00:35.958Z,6.08
2023-05-19T12:03:03.290Z,6.24
2023-05-19T12:05:31.506Z,6.10
2023-05-19T12:08:00.607Z,6.05
2023-05-19T12:10:30.904Z,6.41
2023-05-19T12:12:57.847Z,6.33
2023-05-19T12:15:25.983Z,6.15
2023-05-19T12:18:01.153Z,6.61
2023-05-19T12:20:30.524Z,6.13
2023-05-19T12:22:58.759Z,6.53
2023-05-19T12:25:25.652Z,6.58
2023-05-19T12:27:58.087Z,6.22
2023-05-19T12:30:27.995Z,6.17
2023-05-19T12:32:55.452Z,5.66
2023-05-19T12:35:27.402Z,5.67
2023-05-19T12:37:54.249Z,5.68
2023-05-19T12:40:21.576Z,5.77
2023-05-19T12:42:49.347Z,5.21
2023-05-19T12:45:21.116Z,5.47
2023-05-19T12:47:49.307Z,5.50
2023-05-19T12:50:16.079Z,4.70
2023-05-19T12:52:50.158Z,4.72
2023-05-19T12:55:17.501Z,4.55
2023-05-19T12:57:49.903Z,4.76
2023-05-19T13:00:22.155Z,4.70
2023-05-19T13:03:07.011Z,4.46
2023-05-19T13:05:42.314Z,4.92
2023-05-19T13:08:09.074Z,4.88
2023-05-19T13:10:38.628Z,4.83
2023-05-19T13:13:06.581Z,4.59
2023-05-19T13:15:40.233Z,4.65
2023-05-19T13:18:10.382Z,5.22
2023-05-19T13:20:42.084Z,5.01
2023-05-19T13:23:13.315Z,5.30
2023-05-19T13:25:41.048Z,5.34
2023-05-19T13:28:07.794Z,5.16
2023-05-19T13:30:37.747Z,5.37
2023-05-19T13:33:04.886Z,5.84
2023-05-19T13:35:31.715Z,5.21
2023-05-19T13:37:58.527Z,5.16
2023-05-19T13:40:25.232Z,4.93
2023-05-19T13:42:52.143Z,4.30
2023-05-19T13:45:18.867Z,4.34
2023-05-19T13:47:45.761Z,4.14
2023-05-19T13:50:12.601Z,3.95
2023-05-19T13:52:39.502Z,4.32
2023-05-19T13:55:07.427Z,4.55
2023-05-19T13:57:34.128Z,4.32
2023-05-19T14:00:03.691Z,4.36
2023-05-19T14:02:31.150Z,4.32
2023-05-19T14:04:58.095Z,4.90
2023-05-19T14:07:24.760Z,4.69
2023-05-19T14:09:51.430Z,4.34
2023-05-19T14:12:18.069Z,4.36
2023-05-19T14:14:44.919Z,4.55
2023-05-19T14:17:15.149Z,4.27
2023-05-19T14:19:41.804Z,4.29
2023-05-19T14:22:08.449Z,4.90
2023-05-19T14:24:35.285Z,4.57
2023-05-19T14:27:01.954Z,4.62
2023-05-19T14:29:28.631Z,4.48
2023-05-19T14:31:55.304Z,4.40
2023-05-19T14:34:22.083Z,4.31
2023-05-19T14:36:48.815Z,4.05
2023-05-19T14:39:15.719Z,4.08
2023-05-19T14:41:42.443Z,4.58
2023-05-19T14:44:09.205Z,4.28
2023-05-19T14:46:35.922Z,4.38
2023-05-19T14:49:02.716Z,4.55
2023-05-19T14:51:29.353Z,4.67
2023-05-19T14:53:56.044Z,4.72
2023-05-19T14:56:22.729Z,4.46
2023-05-19T14:58:49.433Z,4.72
2023-05-19T15:01:16.290Z,4.63
2023-05-19T15:03:43.112Z,4.63
2023-05-19T15:06:10.469Z,4.66
2023-05-19T15:08:37.540Z,4.56
2023-05-19T15:11:04.738Z,4.51
2023-05-19T15:13:31.415Z,4.64
2023-05-19T15:16:12.379Z,4.41
2023-05-19T15:18:43.578Z,4.55
2023-05-19T15:21:10.311Z,4.74
2023-05-19T15:23:36.980Z,4.57
2023-05-19T15:26:03.943Z,4.91
2023-05-19T15:28:32.806Z,5.07
2023-05-19T15:30:59.615Z,5.79
2023-05-19T15:33:26.293Z,5.64
2023-05-19T15:35:52.944Z,5.87
2023-05-19T15:38:19.911Z,6.23
2023-05-19T15:40:47.330Z,5.84
2023-05-19T15:43:14.178Z,6.01
2023-05-19T15:45:40.966Z,5.97
2023-05-19T15:48:08.422Z,6.06
2023-05-19T15:50:36.386Z,6.31
2023-05-19T15:53:03.372Z,6.69
2023-05-19T15:55:30.068Z,7.16
2023-05-19T15:57:56.746Z,7.06
2023-05-19T16:00:23.472Z,6.61
2023-05-19T16:02:50.217Z,6.95
2023-05-19T16:05:17.063Z,7.18
2023-05-19T16:07:43.751Z,7.41
2023-05-19T16:10:10.625Z,7.24
2023-05-19T16:12:37.288Z,6.96
2023-05-19T16:15:04.199Z,7.39
2023-05-19T16:17:30.934Z,7.12
2023-05-19T16:19:57.755Z,7.37
2023-05-19T16:22:24.491Z,7.53
2023-05-19T16:24:51.961Z,7.49
2023-05-19T16:27:19.050Z,7.64
2023-05-19T16:29:45.886Z,7.40
2023-05-19T16:32:13.157Z,7.25
2023-05-19T16:34:40.128Z,7.50
2023-05-19T16:37:07.031Z,7.51
2023-05-19T16:39:36.063Z,7.42
2023-05-19T16:42:03.924Z,7.65
2023-05-19T16:44:30.587Z,7.62
2023-05-19T16:46:57.348Z,7.56
2023-05-19T16:49:24.037Z,7.24
2023-05-19T16:51:50.742Z,7.84
2023-05-19T16:54:17.478Z,7.50
2023-05-19T16:56:44.290Z,7.58
2023-05-19T16:59:10.948Z,7.23
2023-05-19T17:01:37.674Z,7.36
2023-05-19T17:04:04.477Z,7.55
2023-05-19T17:06:34.043Z,7.70
2023-05-19T17:09:00.766Z,7.83
2023-05-19T17:11:27.834Z,7.80
2023-05-19T17:13:54.557Z,8.14
2023-05-19T17:16:21.324Z,7.81
2023-05-19T17:18:48.147Z,7.90
2023-05-19T17:21:15.160Z,7.89
2023-05-19T17:23:41.826Z,7.73
2023-05-19T17:26:08.775Z,7.60
2023-05-19T17:28:35.481Z,7.40
2023-05-19T17:31:09.731Z,7.27
2023-05-19T17:33:36.774Z,7.27
2023-05-19T17:36:04.442Z,7.00
2023-05-19T17:38:31.247Z,7.22
2023-05-19T17:40:58.903Z,6.91
2023-05-19T17:43:25.810Z,7.06
2023-05-19T17:45:52.806Z,7.00
2023-05-19T17:48:19.697Z,7.27
2023-05-19T17:50:47.608Z,7.65
2023-05-19T17:53:16.742Z,7.74
2023-05-19T17:55:59.101Z,7.62
2023-05-19T17:58:26.659Z,7.71
2023-05-19T18:00:53.890Z,7.82
2023-05-19T18:03:24.159Z,7.71
2023-05-19T18:05:51.270Z,7.57
2023-05-19T18:08:18.468Z,7.88
2023-05-19T18:10:45.391Z,7.89
2023-05-19T18:13:12.250Z,8.44
2023-05-19T18:15:38.963Z,8.46
2023-05-19T18:18:05.741Z,8.81
2023-05-19T18:20:34.943Z,8.93
2023-05-19T18:23:02.271Z,15.34
2023-05-19T18:25:29.081Z,11.75
2023-05-19T18:27:55.842Z,14.02
2023-05-19T18:30:23.179Z,13.09
2023-05-19T18:32:49.918Z,11.62
2023-05-19T18:35:16.680Z,14.58
2023-05-19T18:37:45.946Z,11.99
2023-05-19T18:40:12.712Z,10.83
2023-05-19T18:42:39.460Z,8.78
2023-05-19T18:45:06.576Z,9.61
2023-05-19T18:47:33.410Z,8.83
2023-05-19T18:50:00.208Z,8.87
2023-05-19T18:52:26.943Z,8.65
2023-05-19T18:54:53.832Z,8.81
2023-05-19T18:57:20.510Z,8.83
2023-05-19T18:59:47.204Z,9.32
2023-05-19T19:02:13.950Z,9.12
2023-05-19T19:04:40.729Z,10.05
2023-05-19T19:07:07.503Z,9.83
2023-05-19T19:09:34.269Z,9.37
2023-05-19T19:12:00.961Z,9.80
2023-05-19T19:14:27.702Z,10.08
2023-05-19T19:16:54.462Z,10.17
2023-05-19T19:19:21.346Z,10.06
2023-05-19T19:21:48.133Z,9.81
2023-05-19T19:24:14.938Z,10.43
2023-05-19T19:26:41.694Z,10.03
2023-05-19T19:29:08.396Z,9.63
2023-05-19T19:31:35.114Z,9.88
2023-05-19T19:34:01.812Z,10.26
2023-05-19T19:36:28.499Z,9.81
2023-05-19T19:38:55.205Z,10.63
2023-05-19T19:41:21.891Z,10.61
2023-05-19T19:43:48.628Z,10.61
2023-05-19T19:46:15.320Z,10.60
2023-05-19T19:48:42.278Z,10.63
2023-05-19T19:51:09.016Z,10.62
2023-05-19T19:53:35.746Z,11.15
2023-05-19T19:56:03.482Z,11.55
2023-05-19T19:58:30.265Z,11.82
2023-05-19T20:01:01.726Z,11.73
2023-05-19T20:03:28.712Z,11.35
2023-05-19T20:05:56.604Z,11.69
2023-05-19T20:08:24.945Z,11.46
2023-05-19T20:10:52.194Z,11.90
2023-05-19T20:13:19.490Z,11.34
2023-05-19T20:15:49.401Z,11.32
2023-05-19T20:18:16.150Z,11.45
2023-05-19T20:20:43.000Z,11.49
2023-05-19T20:23:09.792Z,11.48
2023-05-19T20:25:42.540Z,11.21
2023-05-19T20:28:17.032Z,11.42
2023-05-19T20:30:44.041Z,11.96
2023-05-19T20:33:10.778Z,11.85
2023-05-19T20:35:37.896Z,11.98
2023-05-19T20:38:04.657Z,11.96
2023-05-19T20:40:31.284Z,11.82
2023-05-19T20:42:58.391Z,12.13
2023-05-19T20:45:25.089Z,12.05
2023-05-19T20:47:52.493Z,12.06
2023-05-19T20:50:19.413Z,12.10
2023-05-19T20:52:46.101Z,11.90
2023-05-19T20:55:12.774Z,12.59
2023-05-19T20:57:39.536Z,12.29
2023-05-19T21:00:06.977Z,12.20
2023-05-19T21:02:36.454Z,11.93
2023-05-19T21:05:04.028Z,12.16
2023-05-19T21:07:30.854Z,12.32
2023-05-19T21:09:57.524Z,12.77
2023-05-19T21:12:24.186Z,12.95
2023-05-19T21:14:51.856Z,13.03
2023-05-19T21:17:18.510Z,13.03
2023-05-19T21:19:45.184Z,12.77
2023-05-19T21:22:11.880Z,12.82
2023-05-19T21:24:38.582Z,12.95
2023-05-19T21:27:05.472Z,12.54
2023-05-19T21:29:32.143Z,13.10
2023-05-19T21:32:01.376Z,13.48
2023-05-19T21:34:28.053Z,13.10
2023-05-19T21:36:54.864Z,13.01
2023-05-19T21:39:21.501Z,12.86
2023-05-19T21:41:48.244Z,13.57
2023-05-19T21:44:15.034Z,13.54
2023-05-19T21:46:41.806Z,14.21
2023-05-19T21:49:10.253Z,13.45
2023-05-19T21:51:36.932Z,13.21
2023-05-19T21:54:03.630Z,13.49
2023-05-19T21:56:30.310Z,13.12
2023-05-19T21:58:57.111Z,13.12
2023-05-19T22:01:23.815Z,14.29
2023-05-19T22:03:50.562Z,13.54
2023-05-19T22:06:17.232Z,13.72
2023-05-19T22:08:44.006Z,13.65
2023-05-19T22:11:10.694Z,13.33
2023-05-19T22:13:37.501Z,13.86
2023-05-19T22:16:04.450Z,13.96
2023-05-19T22:18:31.148Z,13.76
2023-05-19T22:20:57.830Z,13.93
2023-05-19T22:23:24.483Z,13.96
2023-05-19T22:25:51.367Z,14.25
2023-05-19T22:28:18.050Z,14.83
2023-05-19T22:30:44.717Z,13.55
2023-05-19T22:33:12.706Z,13.84
2023-05-19T22:35:39.542Z,14.08
2023-05-19T22:38:07.470Z,13.90
2023-05-19T22:40:36.690Z,13.87
2023-05-19T22:43:03.560Z,13.66
2023-05-19T22:45:31.219Z,13.47
2023-05-19T22:47:58.343Z,13.25
2023-05-19T22:50:25.099Z,13.79
2023-05-19T22:52:51.765Z,13.89
2023-05-19T22:55:18.470Z,14.12
2023-05-19T22:57:45.214Z,13.76
2023-05-19T23:00:12.685Z,14.05
2023-05-19T23:02:42.595Z,14.00
2023-05-19T23:05:09.414Z,13.77
2023-05-19T23:07:36.365Z,13.90
2023-05-19T23:10:03.248Z,13.98
2023-05-19T23:12:30.000Z,14.28
2023-05-19T23:14:56.759Z,14.43
2023-05-19T23:17:23.617Z,14.07
2023-05-19T23:19:50.409Z,14.91
2023-05-19T23:22:17.163Z,14.14
2023-05-19T23:24:43.888Z,14.51
2023-05-19T23:27:10.566Z,14.47
2023-05-19T23:29:37.300Z,15.17
2023-05-19T23:32:04.201Z,14.91
2023-05-19T23:34:30.877Z,14.89
2023-05-19T23:36:57.554Z,14.94
2023-05-19T23:39:24.897Z,14.87
2023-05-19T23:41:51.699Z,15.12
2023-05-19T23:44:19.217Z,15.44
2023-05-19T23:46:46.021Z,16.19
2023-05-19T23:49:12.733Z,15.53
2023-05-19T23:51:39.489Z,14.90
2023-05-19T23:54:06.239Z,15.59
2023-05-19T23:56:32.889Z,15.42
2023-05-19T23:59:00.658Z,15.32
